sensor_id;sensor_type;location;lat;lon;timestamp;temperature;humidity
39675;DHT22;27790;50.840;4.386;2022-10-31T00:01:25;16.70;99.90
39675;DHT22;27790;50.840;4.386;2022-10-31T00:03:51;16.70;99.90
39675;DHT22;27790;50.840;4.386;2022-10-31T00:06:17;16.70;99.90
39675;DHT22;27790;50.840;4.386;2022-10-31T00:08:46;16.60;99.90
39675;DHT22;27790;50.840;4.386;2022-10-31T00:11:12;16.60;99.90
39675;DHT22;27790;50.840;4.386;2022-10-31T00:13:37;16.60;99.90
39675;DHT22;27790;50.840;4.386;2022-10-31T00:16:03;16.60;99.90
39675;DHT22;27790;50.840;4.386;2022-10-31T00:18:29;16.60;99.90
39675;DHT22;27790;50.840;4.386;2022-10-31T00:21:02;16.50;99.90
39675;DHT22;27790;50.840;4.386;2022-10-31T00:23:28;16.50;99.90
39675;DHT22;27790;50.840;4.386;2022-10-31T00:25:54;16.50;99.90
39675;DHT22;27790;50.840;4.386;2022-10-31T00:28:19;16.50;99.90
39675;DHT22;27790;50.840;4.386;2022-10-31T00:30:45;16.40;99.90
39675;DHT22;27790;50.840;4.386;2022-10-31T00:33:10;16.40;99.90
39675;DHT22;27790;50.840;4.386;2022-10-31T00:35:36;16.40;99.90
39675;DHT22;27790;50.840;4.386;2022-10-31T00:38:02;16.30;99.90
39675;DHT22;27790;50.840;4.386;2022-10-31T00:40:27;16.20;99.90
39675;DHT22;27790;50.840;4.386;2022-10-31T00:42:53;16.10;99.90
39675;DHT22;27790;50.840;4.386;2022-10-31T00:45:18;16.10;99.90
39675;DHT22;27790;50.840;4.386;2022-10-31T00:47:44;16.00;99.90
39675;DHT22;27790;50.840;4.386;2022-10-31T00:50:09;16.00;99.90
39675;DHT22;27790;50.840;4.386;2022-10-31T00:52:35;16.00;99.90
39675;DHT22;27790;50.840;4.386;2022-10-31T00:55:01;15.90;99.90
39675;DHT22;27790;50.840;4.386;2022-10-31T00:57:26;15.90;99.90
39675;DHT22;27790;50.840;4.386;2022-10-31T00:59:52;15.80;99.90
39675;DHT22;27790;50.840;4.386;2022-10-31T01:02:17;15.80;99.90
39675;DHT22;27790;50.840;4.386;2022-10-31T01:04:43;15.80;99.90
39675;DHT22;27790;50.840;4.386;2022-10-31T01:07:09;15.80;99.90
39675;DHT22;27790;50.840;4.386;2022-10-31T01:09:37;15.70;99.90
39675;DHT22;27790;50.840;4.386;2022-10-31T01:12:03;15.70;99.90
39675;DHT22;27790;50.840;4.386;2022-10-31T01:14:29;15.70;99.90
39675;DHT22;27790;50.840;4.386;2022-10-31T01:16:54;15.60;99.90
39675;DHT22;27790;50.840;4.386;2022-10-31T01:19:20;15.70;99.90
39675;DHT22;27790;50.840;4.386;2022-10-31T01:21:45;15.70;99.90
39675;DHT22;27790;50.840;4.386;2022-10-31T01:24:11;15.60;99.90
39675;DHT22;27790;50.840;4.386;2022-10-31T01:26:36;15.70;99.90
39675;DHT22;27790;50.840;4.386;2022-10-31T01:29:06;15.70;99.90
39675;DHT22;27790;50.840;4.386;2022-10-31T01:31:36;15.70;99.90
39675;DHT22;27790;50.840;4.386;2022-10-31T01:34:02;15.70;99.90
39675;DHT22;27790;50.840;4.386;2022-10-31T01:36:33;15.70;99.90
39675;DHT22;27790;50.840;4.386;2022-10-31T01:39:05;15.70;99.90
39675;DHT22;27790;50.840;4.386;2022-10-31T01:41:34;15.70;99.90
39675;DHT22;27790;50.840;4.386;2022-10-31T01:46:54;15.60;99.90
39675;DHT22;27790;50.840;4.386;2022-10-31T01:54:41;15.50;99.90
39675;DHT22;27790;50.840;4.386;2022-10-31T01:57:10;15.50;99.90
39675;DHT22;27790;50.840;4.386;2022-10-31T01:59:42;15.40;99.90
39675;DHT22;27790;50.840;4.386;2022-10-31T02:02:09;15.40;99.90
39675;DHT22;27790;50.840;4.386;2022-10-31T02:04:35;15.40;99.90
39675;DHT22;27790;50.840;4.386;2022-10-31T02:07:16;15.30;99.90
39675;DHT22;27790;50.840;4.386;2022-10-31T02:09:43;15.30;99.90
39675;DHT22;27790;50.840;4.386;2022-10-31T02:12:10;15.30;99.90
39675;DHT22;27790;50.840;4.386;2022-10-31T02:14:37;15.30;99.90
39675;DHT22;27790;50.840;4.386;2022-10-31T02:17:04;15.30;99.90
39675;DHT22;27790;50.840;4.386;2022-10-31T02:30:21;15.20;99.90
39675;DHT22;27790;50.840;4.386;2022-10-31T02:33:20;15.20;99.90
39675;DHT22;27790;50.840;4.386;2022-10-31T02:36:00;15.20;99.90
39675;DHT22;27790;50.840;4.386;2022-10-31T02:38:45;15.20;99.90
39675;DHT22;27790;50.840;4.386;2022-10-31T02:41:24;15.20;99.90
39675;DHT22;27790;50.840;4.386;2022-10-31T02:51:59;15.10;99.90
39675;DHT22;27790;50.840;4.386;2022-10-31T02:54:26;15.10;99.90
39675;DHT22;27790;50.840;4.386;2022-10-31T02:56:59;15.10;99.90
39675;DHT22;27790;50.840;4.386;2022-10-31T02:59:25;15.00;99.90
39675;DHT22;27790;50.840;4.386;2022-10-31T03:07:17;15.10;99.90
39675;DHT22;27790;50.840;4.386;2022-10-31T03:10:00;15.10;99.90
39675;DHT22;27790;50.840;4.386;2022-10-31T03:15:17;15.10;99.90
39675;DHT22;27790;50.840;4.386;2022-10-31T03:17:53;15.10;99.90
39675;DHT22;27790;50.840;4.386;2022-10-31T03:20:24;15.10;99.90
39675;DHT22;27790;50.840;4.386;2022-10-31T03:22:52;15.10;99.90
39675;DHT22;27790;50.840;4.386;2022-10-31T03:25:19;15.10;99.90
39675;DHT22;27790;50.840;4.386;2022-10-31T03:27:46;15.10;99.90
39675;DHT22;27790;50.840;4.386;2022-10-31T03:30:13;15.00;99.90
39675;DHT22;27790;50.840;4.386;2022-10-31T03:32:45;15.00;99.90
39675;DHT22;27790;50.840;4.386;2022-10-31T03:35:13;14.90;99.90
39675;DHT22;27790;50.840;4.386;2022-10-31T03:37:40;14.90;99.90
39675;DHT22;27790;50.840;4.386;2022-10-31T03:40:08;14.90;99.90
39675;DHT22;27790;50.840;4.386;2022-10-31T03:42:39;14.90;99.90
39675;DHT22;27790;50.840;4.386;2022-10-31T03:45:06;14.80;99.90
39675;DHT22;27790;50.840;4.386;2022-10-31T03:47:37;14.80;99.90
39675;DHT22;27790;50.840;4.386;2022-10-31T03:50:07;14.70;99.90
39675;DHT22;27790;50.840;4.386;2022-10-31T03:52:50;14.70;99.90
39675;DHT22;27790;50.840;4.386;2022-10-31T04:00:13;14.70;99.90
39675;DHT22;27790;50.840;4.386;2022-10-31T04:02:42;14.60;99.90
39675;DHT22;27790;50.840;4.386;2022-10-31T04:05:12;14.70;99.90
39675;DHT22;27790;50.840;4.386;2022-10-31T04:07:41;14.60;99.90
39675;DHT22;27790;50.840;4.386;2022-10-31T04:10:11;14.60;99.90
39675;DHT22;27790;50.840;4.386;2022-10-31T04:12:39;14.70;99.90
39675;DHT22;27790;50.840;4.386;2022-10-31T04:15:06;14.60;99.90
39675;DHT22;27790;50.840;4.386;2022-10-31T04:17:36;14.50;99.90
39675;DHT22;27790;50.840;4.386;2022-10-31T04:20:03;14.50;99.90
39675;DHT22;27790;50.840;4.386;2022-10-31T04:22:29;14.50;99.90
39675;DHT22;27790;50.840;4.386;2022-10-31T04:24:54;14.50;99.90
39675;DHT22;27790;50.840;4.386;2022-10-31T04:27:20;14.50;99.90
39675;DHT22;27790;50.840;4.386;2022-10-31T04:29:46;14.50;99.90
39675;DHT22;27790;50.840;4.386;2022-10-31T04:32:11;14.40;99.90
39675;DHT22;27790;50.840;4.386;2022-10-31T04:34:37;14.40;99.90
39675;DHT22;27790;50.840;4.386;2022-10-31T04:37:02;14.40;99.90
39675;DHT22;27790;50.840;4.386;2022-10-31T04:39:28;14.40;99.90
39675;DHT22;27790;50.840;4.386;2022-10-31T04:41:53;14.40;99.90
39675;DHT22;27790;50.840;4.386;2022-10-31T04:44:19;14.30;99.90
39675;DHT22;27790;50.840;4.386;2022-10-31T04:46:44;14.30;99.90
39675;DHT22;27790;50.840;4.386;2022-10-31T04:49:10;14.30;99.90
39675;DHT22;27790;50.840;4.386;2022-10-31T04:51:36;14.30;99.90
39675;DHT22;27790;50.840;4.386;2022-10-31T04:54:01;14.30;99.90
39675;DHT22;27790;50.840;4.386;2022-10-31T04:56:27;14.30;99.90
39675;DHT22;27790;50.840;4.386;2022-10-31T04:58:52;14.20;99.90
39675;DHT22;27790;50.840;4.386;2022-10-31T05:01:18;14.30;99.90
39675;DHT22;27790;50.840;4.386;2022-10-31T05:03:43;14.30;99.90
39675;DHT22;27790;50.840;4.386;2022-10-31T05:06:09;14.30;99.90
39675;DHT22;27790;50.840;4.386;2022-10-31T05:08:34;14.30;99.90
39675;DHT22;27790;50.840;4.386;2022-10-31T05:11:01;14.30;99.90
39675;DHT22;27790;50.840;4.386;2022-10-31T05:13:27;14.40;99.90
39675;DHT22;27790;50.840;4.386;2022-10-31T05:15:53;14.40;99.90
39675;DHT22;27790;50.840;4.386;2022-10-31T05:18:19;14.40;99.90
39675;DHT22;27790;50.840;4.386;2022-10-31T05:20:44;14.50;99.90
39675;DHT22;27790;50.840;4.386;2022-10-31T05:23:10;14.60;99.90
39675;DHT22;27790;50.840;4.386;2022-10-31T05:25:35;14.60;99.90
39675;DHT22;27790;50.840;4.386;2022-10-31T05:28:01;14.70;99.90
39675;DHT22;27790;50.840;4.386;2022-10-31T05:30:31;14.70;99.90
39675;DHT22;27790;50.840;4.386;2022-10-31T05:32:56;14.70;99.90
39675;DHT22;27790;50.840;4.386;2022-10-31T05:35:27;14.80;99.90
39675;DHT22;27790;50.840;4.386;2022-10-31T05:37:53;14.80;99.90
39675;DHT22;27790;50.840;4.386;2022-10-31T05:40:20;14.80;99.90
39675;DHT22;27790;50.840;4.386;2022-10-31T05:42:46;14.80;99.90
39675;DHT22;27790;50.840;4.386;2022-10-31T05:45:15;14.80;99.90
39675;DHT22;27790;50.840;4.386;2022-10-31T05:47:41;14.70;99.90
39675;DHT22;27790;50.840;4.386;2022-10-31T05:50:08;14.70;99.90
39675;DHT22;27790;50.840;4.386;2022-10-31T05:52:35;14.70;99.90
39675;DHT22;27790;50.840;4.386;2022-10-31T05:55:00;14.70;99.90
39675;DHT22;27790;50.840;4.386;2022-10-31T05:57:26;14.70;99.90
39675;DHT22;27790;50.840;4.386;2022-10-31T05:59:51;14.70;99.90
39675;DHT22;27790;50.840;4.386;2022-10-31T06:02:19;14.70;99.90
39675;DHT22;27790;50.840;4.386;2022-10-31T06:04:45;14.70;99.90
39675;DHT22;27790;50.840;4.386;2022-10-31T06:07:10;14.80;99.90
39675;DHT22;27790;50.840;4.386;2022-10-31T06:09:36;14.90;99.90
39675;DHT22;27790;50.840;4.386;2022-10-31T06:12:01;14.90;99.90
39675;DHT22;27790;50.840;4.386;2022-10-31T06:14:27;15.00;99.90
39675;DHT22;27790;50.840;4.386;2022-10-31T06:16:54;15.00;99.90
39675;DHT22;27790;50.840;4.386;2022-10-31T06:19:20;15.00;99.90
39675;DHT22;27790;50.840;4.386;2022-10-31T06:21:45;15.00;99.90
39675;DHT22;27790;50.840;4.386;2022-10-31T06:24:11;15.00;99.90
39675;DHT22;27790;50.840;4.386;2022-10-31T06:26:36;15.00;99.90
39675;DHT22;27790;50.840;4.386;2022-10-31T06:29:02;15.00;99.90
39675;DHT22;27790;50.840;4.386;2022-10-31T06:31:28;15.00;99.90
39675;DHT22;27790;50.840;4.386;2022-10-31T06:33:53;15.00;99.90
39675;DHT22;27790;50.840;4.386;2022-10-31T06:36:19;15.10;99.90
39675;DHT22;27790;50.840;4.386;2022-10-31T06:38:44;15.20;99.90
39675;DHT22;27790;50.840;4.386;2022-10-31T06:41:10;15.30;99.90
39675;DHT22;27790;50.840;4.386;2022-10-31T06:43:35;15.30;99.90
39675;DHT22;27790;50.840;4.386;2022-10-31T06:46:05;15.30;99.90
39675;DHT22;27790;50.840;4.386;2022-10-31T06:48:31;15.30;99.90
39675;DHT22;27790;50.840;4.386;2022-10-31T06:51:00;15.30;99.90
39675;DHT22;27790;50.840;4.386;2022-10-31T06:53:27;15.20;99.90
39675;DHT22;27790;50.840;4.386;2022-10-31T06:55:55;15.30;99.90
39675;DHT22;27790;50.840;4.386;2022-10-31T06:58:21;15.30;99.90
39675;DHT22;27790;50.840;4.386;2022-10-31T07:00:46;15.40;99.90
39675;DHT22;27790;50.840;4.386;2022-10-31T07:03:13;15.40;99.90
39675;DHT22;27790;50.840;4.386;2022-10-31T07:05:39;15.50;99.90
39675;DHT22;27790;50.840;4.386;2022-10-31T07:08:11;15.50;99.90
39675;DHT22;27790;50.840;4.386;2022-10-31T07:10:38;15.50;99.90
39675;DHT22;27790;50.840;4.386;2022-10-31T07:13:06;15.50;99.90
39675;DHT22;27790;50.840;4.386;2022-10-31T07:15:36;15.60;99.90
39675;DHT22;27790;50.840;4.386;2022-10-31T07:18:04;15.60;99.90
39675;DHT22;27790;50.840;4.386;2022-10-31T07:20:30;15.70;99.90
39675;DHT22;27790;50.840;4.386;2022-10-31T07:22:56;15.70;99.90
39675;DHT22;27790;50.840;4.386;2022-10-31T07:25:22;15.70;99.90
39675;DHT22;27790;50.840;4.386;2022-10-31T07:27:48;15.80;99.90
39675;DHT22;27790;50.840;4.386;2022-10-31T07:30:14;15.80;99.90
39675;DHT22;27790;50.840;4.386;2022-10-31T07:32:41;15.80;99.90
39675;DHT22;27790;50.840;4.386;2022-10-31T07:35:08;15.80;99.90
39675;DHT22;27790;50.840;4.386;2022-10-31T07:37:34;15.90;99.90
39675;DHT22;27790;50.840;4.386;2022-10-31T07:40:00;15.90;99.90
39675;DHT22;27790;50.840;4.386;2022-10-31T07:42:26;16.00;99.90
39675;DHT22;27790;50.840;4.386;2022-10-31T07:44:52;16.00;99.90
39675;DHT22;27790;50.840;4.386;2022-10-31T07:47:18;16.00;99.90
39675;DHT22;27790;50.840;4.386;2022-10-31T07:49:43;16.10;99.90
39675;DHT22;27790;50.840;4.386;2022-10-31T07:52:09;16.10;99.90
39675;DHT22;27790;50.840;4.386;2022-10-31T07:54:34;16.20;99.90
39675;DHT22;27790;50.840;4.386;2022-10-31T07:57:00;16.20;99.90
39675;DHT22;27790;50.840;4.386;2022-10-31T07:59:25;16.20;99.90
39675;DHT22;27790;50.840;4.386;2022-10-31T08:01:52;16.20;99.90
39675;DHT22;27790;50.840;4.386;2022-10-31T08:04:18;16.10;99.90
39675;DHT22;27790;50.840;4.386;2022-10-31T08:06:44;16.10;99.90
39675;DHT22;27790;50.840;4.386;2022-10-31T08:09:09;16.10;99.90
39675;DHT22;27790;50.840;4.386;2022-10-31T08:11:35;16.20;99.90
39675;DHT22;27790;50.840;4.386;2022-10-31T08:14:00;16.30;99.90
39675;DHT22;27790;50.840;4.386;2022-10-31T08:16:26;16.30;99.90
39675;DHT22;27790;50.840;4.386;2022-10-31T08:18:52;16.30;99.90
39675;DHT22;27790;50.840;4.386;2022-10-31T08:21:20;16.40;99.90
39675;DHT22;27790;50.840;4.386;2022-10-31T08:23:46;16.40;99.90
39675;DHT22;27790;50.840;4.386;2022-10-31T08:26:11;16.40;99.90
39675;DHT22;27790;50.840;4.386;2022-10-31T08:28:37;16.50;99.90
39675;DHT22;27790;50.840;4.386;2022-10-31T08:31:02;16.50;99.90
39675;DHT22;27790;50.840;4.386;2022-10-31T08:33:28;16.50;99.90
39675;DHT22;27790;50.840;4.386;2022-10-31T08:35:54;16.50;99.90
39675;DHT22;27790;50.840;4.386;2022-10-31T08:38:19;16.50;99.90
39675;DHT22;27790;50.840;4.386;2022-10-31T08:40:48;16.50;99.90
39675;DHT22;27790;50.840;4.386;2022-10-31T08:43:15;16.40;99.90
39675;DHT22;27790;50.840;4.386;2022-10-31T08:45:42;16.40;99.90
39675;DHT22;27790;50.840;4.386;2022-10-31T08:48:11;16.40;99.90
39675;DHT22;27790;50.840;4.386;2022-10-31T08:50:37;16.50;99.90
39675;DHT22;27790;50.840;4.386;2022-10-31T08:55:44;16.90;99.90
39675;DHT22;27790;50.840;4.386;2022-10-31T08:58:13;16.90;99.90
39675;DHT22;27790;50.840;4.386;2022-10-31T09:00:38;17.00;99.90
39675;DHT22;27790;50.840;4.386;2022-10-31T09:03:08;17.10;99.90
39675;DHT22;27790;50.840;4.386;2022-10-31T09:05:34;17.10;99.90
39675;DHT22;27790;50.840;4.386;2022-10-31T09:08:01;17.20;99.90
39675;DHT22;27790;50.840;4.386;2022-10-31T09:10:28;17.20;99.90
39675;DHT22;27790;50.840;4.386;2022-10-31T09:13:00;17.40;99.90
39675;DHT22;27790;50.840;4.386;2022-10-31T09:15:27;17.50;99.90
39675;DHT22;27790;50.840;4.386;2022-10-31T09:17:53;17.50;99.90
39675;DHT22;27790;50.840;4.386;2022-10-31T09:20:19;17.60;99.90
39675;DHT22;27790;50.840;4.386;2022-10-31T09:22:45;17.60;99.90
39675;DHT22;27790;50.840;4.386;2022-10-31T09:25:11;17.50;99.90
39675;DHT22;27790;50.840;4.386;2022-10-31T09:27:36;17.40;99.90
39675;DHT22;27790;50.840;4.386;2022-10-31T09:30:03;17.40;99.90
39675;DHT22;27790;50.840;4.386;2022-10-31T09:32:29;17.40;99.90
39675;DHT22;27790;50.840;4.386;2022-10-31T09:34:54;17.40;99.90
39675;DHT22;27790;50.840;4.386;2022-10-31T09:37:20;17.40;99.90
39675;DHT22;27790;50.840;4.386;2022-10-31T09:39:46;17.40;99.90
39675;DHT22;27790;50.840;4.386;2022-10-31T09:42:25;17.40;99.90
39675;DHT22;27790;50.840;4.386;2022-10-31T09:50:27;17.40;99.90
39675;DHT22;27790;50.840;4.386;2022-10-31T09:53:03;17.30;99.90
39675;DHT22;27790;50.840;4.386;2022-10-31T09:55:36;17.20;99.90
39675;DHT22;27790;50.840;4.386;2022-10-31T09:58:03;17.30;99.90
39675;DHT22;27790;50.840;4.386;2022-10-31T10:00:28;17.40;99.90
39675;DHT22;27790;50.840;4.386;2022-10-31T10:05:54;17.70;99.90
39675;DHT22;27790;50.840;4.386;2022-10-31T10:08:26;17.80;99.90
39675;DHT22;27790;50.840;4.386;2022-10-31T10:11:08;17.80;99.90
39675;DHT22;27790;50.840;4.386;2022-10-31T10:19:27;18.00;99.90
39675;DHT22;27790;50.840;4.386;2022-10-31T10:22:03;18.10;99.90
39675;DHT22;27790;50.840;4.386;2022-10-31T10:27:35;18.40;99.90
39675;DHT22;27790;50.840;4.386;2022-10-31T10:30:20;18.50;99.90
39675;DHT22;27790;50.840;4.386;2022-10-31T10:37:59;18.40;99.90
39675;DHT22;27790;50.840;4.386;2022-10-31T10:40:30;18.30;99.90
39675;DHT22;27790;50.840;4.386;2022-10-31T10:43:18;18.30;99.90
39675;DHT22;27790;50.840;4.386;2022-10-31T10:45:58;18.20;99.90
39675;DHT22;27790;50.840;4.386;2022-10-31T10:48:46;18.30;99.90
39675;DHT22;27790;50.840;4.386;2022-10-31T10:51:27;18.20;99.90
39675;DHT22;27790;50.840;4.386;2022-10-31T10:54:09;18.10;99.90
39675;DHT22;27790;50.840;4.386;2022-10-31T10:59:26;18.30;99.90
39675;DHT22;27790;50.840;4.386;2022-10-31T11:01:52;18.40;99.90
39675;DHT22;27790;50.840;4.386;2022-10-31T11:04:30;18.40;99.90
39675;DHT22;27790;50.840;4.386;2022-10-31T11:07:07;18.50;99.90
39675;DHT22;27790;50.840;4.386;2022-10-31T11:09:34;18.60;99.90
39675;DHT22;27790;50.840;4.386;2022-10-31T11:14:48;18.60;99.90
39675;DHT22;27790;50.840;4.386;2022-10-31T11:17:26;18.60;99.90
39675;DHT22;27790;50.840;4.386;2022-10-31T11:20:25;18.70;99.90
39675;DHT22;27790;50.840;4.386;2022-10-31T11:22:49;18.70;99.90
39675;DHT22;27790;50.840;4.386;2022-10-31T11:25:26;18.70;99.90
39675;DHT22;27790;50.840;4.386;2022-10-31T11:28:04;18.60;99.90
39675;DHT22;27790;50.840;4.386;2022-10-31T11:30:31;18.60;99.90
39675;DHT22;27790;50.840;4.386;2022-10-31T11:33:01;18.70;99.90
39675;DHT22;27790;50.840;4.386;2022-10-31T11:35:27;18.70;99.90
39675;DHT22;27790;50.840;4.386;2022-10-31T11:37:56;18.80;99.90
39675;DHT22;27790;50.840;4.386;2022-10-31T11:40:26;18.80;99.90
39675;DHT22;27790;50.840;4.386;2022-10-31T11:42:56;18.70;99.90
39675;DHT22;27790;50.840;4.386;2022-10-31T11:47:50;18.70;99.90
39675;DHT22;27790;50.840;4.386;2022-10-31T11:50:29;18.80;99.90
39675;DHT22;27790;50.840;4.386;2022-10-31T11:52:56;18.90;99.90
39675;DHT22;27790;50.840;4.386;2022-10-31T11:55:37;18.90;99.90
39675;DHT22;27790;50.840;4.386;2022-10-31T11:58:03;18.80;99.90
39675;DHT22;27790;50.840;4.386;2022-10-31T12:00:38;18.90;99.90
39675;DHT22;27790;50.840;4.386;2022-10-31T12:08:31;18.90;99.90
39675;DHT22;27790;50.840;4.386;2022-10-31T12:16:07;19.00;99.90
39675;DHT22;27790;50.840;4.386;2022-10-31T12:24:14;19.40;99.90
39675;DHT22;27790;50.840;4.386;2022-10-31T12:26:51;19.40;99.90
39675;DHT22;27790;50.840;4.386;2022-10-31T12:32:28;19.30;99.90
39675;DHT22;27790;50.840;4.386;2022-10-31T12:45:55;19.40;99.90
39675;DHT22;27790;50.840;4.386;2022-10-31T12:48:37;19.60;99.90
39675;DHT22;27790;50.840;4.386;2022-10-31T12:56:39;19.70;99.90
39675;DHT22;27790;50.840;4.386;2022-10-31T13:04:55;19.90;99.90
39675;DHT22;27790;50.840;4.386;2022-10-31T13:09:59;20.00;99.90
39675;DHT22;27790;50.840;4.386;2022-10-31T13:12:27;20.10;99.90
39675;DHT22;27790;50.840;4.386;2022-10-31T13:14:58;20.00;99.90
39675;DHT22;27790;50.840;4.386;2022-10-31T13:22:42;19.90;99.90
39675;DHT22;27790;50.840;4.386;2022-10-31T13:30:23;20.00;99.90
39675;DHT22;27790;50.840;4.386;2022-10-31T13:33:02;20.00;99.90
39675;DHT22;27790;50.840;4.386;2022-10-31T13:35:48;19.90;99.90
39675;DHT22;27790;50.840;4.386;2022-10-31T13:38:31;19.80;99.90
39675;DHT22;27790;50.840;4.386;2022-10-31T13:46:45;19.80;99.90
39675;DHT22;27790;50.840;4.386;2022-10-31T13:51:47;19.80;99.90
39675;DHT22;27790;50.840;4.386;2022-10-31T13:54:32;19.80;99.90
39675;DHT22;27790;50.840;4.386;2022-10-31T13:56:59;19.80;99.90
39675;DHT22;27790;50.840;4.386;2022-10-31T13:59:28;19.70;99.90
39675;DHT22;27790;50.840;4.386;2022-10-31T14:02:01;19.80;99.90
39675;DHT22;27790;50.840;4.386;2022-10-31T14:07:17;19.90;99.90
39675;DHT22;27790;50.840;4.386;2022-10-31T14:09:59;19.90;99.90
39675;DHT22;27790;50.840;4.386;2022-10-31T14:12:33;19.90;99.90
39675;DHT22;27790;50.840;4.386;2022-10-31T14:17:56;20.00;99.90
39675;DHT22;27790;50.840;4.386;2022-10-31T14:23:35;20.00;99.90
39675;DHT22;27790;50.840;4.386;2022-10-31T14:26:50;20.00;99.90
39675;DHT22;27790;50.840;4.386;2022-10-31T14:31:41;20.00;99.90
39675;DHT22;27790;50.840;4.386;2022-10-31T14:52:22;19.80;99.90
39675;DHT22;27790;50.840;4.386;2022-10-31T14:54:54;19.80;99.90
39675;DHT22;27790;50.840;4.386;2022-10-31T14:57:29;19.80;99.90
39675;DHT22;27790;50.840;4.386;2022-10-31T15:00:01;19.70;99.90
39675;DHT22;27790;50.840;4.386;2022-10-31T15:02:39;19.70;99.90
39675;DHT22;27790;50.840;4.386;2022-10-31T15:05:11;19.70;99.90
39675;DHT22;27790;50.840;4.386;2022-10-31T15:07:50;19.70;99.90
39675;DHT22;27790;50.840;4.386;2022-10-31T15:12:49;19.60;99.90
39675;DHT22;27790;50.840;4.386;2022-10-31T15:15:26;19.60;99.90
39675;DHT22;27790;50.840;4.386;2022-10-31T15:17:53;19.50;99.90
39675;DHT22;27790;50.840;4.386;2022-10-31T15:20:22;19.40;99.90
39675;DHT22;27790;50.840;4.386;2022-10-31T15:22:49;19.30;99.90
39675;DHT22;27790;50.840;4.386;2022-10-31T15:25:22;19.20;99.90
39675;DHT22;27790;50.840;4.386;2022-10-31T15:27:49;19.20;99.90
39675;DHT22;27790;50.840;4.386;2022-10-31T15:30:24;19.10;99.90
39675;DHT22;27790;50.840;4.386;2022-10-31T15:32:51;19.10;99.90
39675;DHT22;27790;50.840;4.386;2022-10-31T15:35:28;19.00;99.90
39675;DHT22;27790;50.840;4.386;2022-10-31T15:37:55;19.00;99.90
39675;DHT22;27790;50.840;4.386;2022-10-31T15:40:23;18.90;99.90
39675;DHT22;27790;50.840;4.386;2022-10-31T15:43:10;18.90;99.90
39675;DHT22;27790;50.840;4.386;2022-10-31T15:45:42;18.90;99.90
39675;DHT22;27790;50.840;4.386;2022-10-31T15:48:17;18.90;99.90
39675;DHT22;27790;50.840;4.386;2022-10-31T15:50:49;18.80;99.90
39675;DHT22;27790;50.840;4.386;2022-10-31T15:53:26;18.80;99.90
39675;DHT22;27790;50.840;4.386;2022-10-31T15:56:00;18.80;99.90
39675;DHT22;27790;50.840;4.386;2022-10-31T15:58:27;18.70;99.90
39675;DHT22;27790;50.840;4.386;2022-10-31T16:01:02;18.70;99.90
39675;DHT22;27790;50.840;4.386;2022-10-31T16:03:30;18.60;99.90
39675;DHT22;27790;50.840;4.386;2022-10-31T16:05:58;18.60;99.90
39675;DHT22;27790;50.840;4.386;2022-10-31T16:13:40;18.60;99.90
39675;DHT22;27790;50.840;4.386;2022-10-31T16:16:14;18.50;99.90
39675;DHT22;27790;50.840;4.386;2022-10-31T16:18:41;18.50;99.90
39675;DHT22;27790;50.840;4.386;2022-10-31T16:21:08;18.40;99.90
39675;DHT22;27790;50.840;4.386;2022-10-31T16:23:38;18.40;99.90
39675;DHT22;27790;50.840;4.386;2022-10-31T16:26:08;18.30;99.90
39675;DHT22;27790;50.840;4.386;2022-10-31T16:28:34;18.20;99.90
39675;DHT22;27790;50.840;4.386;2022-10-31T16:31:01;18.20;99.90
39675;DHT22;27790;50.840;4.386;2022-10-31T16:33:35;18.10;99.90
39675;DHT22;27790;50.840;4.386;2022-10-31T16:36:32;18.10;99.90
39675;DHT22;27790;50.840;4.386;2022-10-31T16:39:00;18.10;99.90
39675;DHT22;27790;50.840;4.386;2022-10-31T16:41:26;18.00;99.90
39675;DHT22;27790;50.840;4.386;2022-10-31T16:43:52;18.00;99.90
39675;DHT22;27790;50.840;4.386;2022-10-31T16:46:22;18.00;99.90
39675;DHT22;27790;50.840;4.386;2022-10-31T16:48:48;18.00;99.90
39675;DHT22;27790;50.840;4.386;2022-10-31T16:51:14;17.90;99.90
39675;DHT22;27790;50.840;4.386;2022-10-31T16:53:39;17.90;99.90
39675;DHT22;27790;50.840;4.386;2022-10-31T16:56:20;17.80;99.90
39675;DHT22;27790;50.840;4.386;2022-10-31T16:58:46;17.80;99.90
39675;DHT22;27790;50.840;4.386;2022-10-31T17:01:13;17.80;99.90
39675;DHT22;27790;50.840;4.386;2022-10-31T17:03:38;17.80;99.90
39675;DHT22;27790;50.840;4.386;2022-10-31T17:06:04;17.70;99.90
39675;DHT22;27790;50.840;4.386;2022-10-31T17:08:30;17.70;99.90
39675;DHT22;27790;50.840;4.386;2022-10-31T17:10:56;17.70;99.90
39675;DHT22;27790;50.840;4.386;2022-10-31T17:13:28;17.70;99.90
39675;DHT22;27790;50.840;4.386;2022-10-31T17:15:57;17.70;99.90
39675;DHT22;27790;50.840;4.386;2022-10-31T17:18:23;17.70;99.90
39675;DHT22;27790;50.840;4.386;2022-10-31T17:20:49;17.70;99.90
39675;DHT22;27790;50.840;4.386;2022-10-31T17:23:16;17.70;99.90
39675;DHT22;27790;50.840;4.386;2022-10-31T17:25:42;17.70;99.90
39675;DHT22;27790;50.840;4.386;2022-10-31T17:28:11;17.70;99.90
39675;DHT22;27790;50.840;4.386;2022-10-31T17:30:39;17.70;99.90
39675;DHT22;27790;50.840;4.386;2022-10-31T17:33:05;17.70;99.90
39675;DHT22;27790;50.840;4.386;2022-10-31T17:35:30;17.70;99.90
39675;DHT22;27790;50.840;4.386;2022-10-31T17:37:56;17.70;99.90
39675;DHT22;27790;50.840;4.386;2022-10-31T17:40:22;17.80;99.90
39675;DHT22;27790;50.840;4.386;2022-10-31T17:42:49;17.80;99.90
39675;DHT22;27790;50.840;4.386;2022-10-31T17:45:15;17.70;99.90
39675;DHT22;27790;50.840;4.386;2022-10-31T17:47:40;17.70;99.90
39675;DHT22;27790;50.840;4.386;2022-10-31T17:50:06;17.80;99.90
39675;DHT22;27790;50.840;4.386;2022-10-31T17:52:32;17.80;99.90
39675;DHT22;27790;50.840;4.386;2022-10-31T17:54:58;17.80;99.90
39675;DHT22;27790;50.840;4.386;2022-10-31T17:57:23;17.80;99.90
39675;DHT22;27790;50.840;4.386;2022-10-31T17:59:49;17.80;99.90
39675;DHT22;27790;50.840;4.386;2022-10-31T18:02:14;17.80;99.90
39675;DHT22;27790;50.840;4.386;2022-10-31T18:04:40;17.80;99.90
39675;DHT22;27790;50.840;4.386;2022-10-31T18:07:07;17.90;99.90
39675;DHT22;27790;50.840;4.386;2022-10-31T18:09:33;17.80;99.90
39675;DHT22;27790;50.840;4.386;2022-10-31T18:11:59;17.80;99.90
39675;DHT22;27790;50.840;4.386;2022-10-31T18:14:24;17.90;99.90
39675;DHT22;27790;50.840;4.386;2022-10-31T18:16:50;17.90;99.90
39675;DHT22;27790;50.840;4.386;2022-10-31T18:19:16;17.80;99.90
39675;DHT22;27790;50.840;4.386;2022-10-31T18:21:44;17.90;99.90
39675;DHT22;27790;50.840;4.386;2022-10-31T18:24:10;17.90;99.90
39675;DHT22;27790;50.840;4.386;2022-10-31T18:26:36;17.90;99.90
39675;DHT22;27790;50.840;4.386;2022-10-31T18:29:01;17.80;99.90
39675;DHT22;27790;50.840;4.386;2022-10-31T18:31:28;17.80;99.90
39675;DHT22;27790;50.840;4.386;2022-10-31T18:33:55;17.80;99.90